Time;durP1;ratioP1;P1;durP2;ratioP2;P2;SDS_P1;SDS_P2;PMS_P1;PMS_P2;Temp;Humidity;BMP_temperature;BMP_pressure;BME280_temperature;BME280_humidity;BME280_pressure;Samples;Min_cycle;Max_cycle;Signal;HPM_P1;HPM_P2
2022/02/07 00:03:49;;;;;;;20.38;15.18;;;;;;;21.98;29.32;94083.75;4894762;28;97015;-45
2022/02/07 00:06:14;;;;;;;22.08;15.80;;;;;;;22.13;29.03;94087.75;4895928;28;99516;-43
2022/02/07 00:08:41;;;;;;;22.13;15.82;;;;;;;22.15;28.74;94079.09;4895924;28;99129;-40
2022/02/07 00:11:06;;;;;;;20.38;16.08;;;;;;;22.13;28.95;94076.75;4896059;28;96890;-44
2022/02/07 00:13:31;;;;;;;20.88;16.15;;;;;;;22.09;28.86;94076.06;4896616;28;96937;-45
2022/02/07 00:15:57;;;;;;;20.75;15.95;;;;;;;22.05;28.60;94075.38;4897910;28;99473;-42
2022/02/07 00:18:23;;;;;;;20.75;15.93;;;;;;;21.95;28.75;94087.34;4894972;28;99259;-41
2022/02/07 00:20:49;;;;;;;21.23;15.07;;;;;;;22.03;28.42;94084.03;4895449;28;96814;-42
2022/02/07 00:23:14;;;;;;;19.23;14.15;;;;;;;21.98;28.71;94059.00;4891572;28;97047;-45
2022/02/07 00:25:40;;;;;;;19.27;14.10;;;;;;;22.01;28.74;94064.44;4892395;28;99479;-42
2022/02/07 00:28:05;;;;;;;19.83;13.77;;;;;;;22.00;28.32;94062.13;4891843;28;99266;-47
2022/02/07 00:30:31;;;;;;;22.35;17.42;;;;;;;22.07;27.78;94067.47;4894251;28;96950;-41
2022/02/07 00:32:56;;;;;;;22.40;18.67;;;;;;;22.03;27.97;94066.78;4895725;28;98043;-42
2022/02/07 00:35:23;;;;;;;23.40;17.30;;;;;;;22.00;28.50;94056.63;4895501;28;99474;-44
2022/02/07 00:37:50;;;;;;;23.70;18.73;;;;;;;22.02;28.18;94048.72;4892547;28;99233;-46
2022/02/07 00:43:38;;;;;;;26.88;19.35;;;;;;;21.95;28.54;94055.13;4894684;28;96924;-44
2022/02/07 00:48:03;;;;;;;27.33;20.52;;;;;;;21.85;28.55;94028.59;4893742;28;97506;-41
2022/02/07 00:50:29;;;;;;;26.27;21.42;;;;;;;21.88;28.44;94027.75;4890114;28;98494;-45
2022/02/07 00:52:54;;;;;;;24.65;20.27;;;;;;;21.84;28.08;94022.34;4895667;28;96883;-42
2022/02/07 00:55:20;;;;;;;28.42;22.52;;;;;;;21.87;28.35;94016.00;4894880;28;99616;-43
2022/02/07 00:57:45;;;;;;;27.67;22.67;;;;;;;21.84;28.28;94000.34;4897606;28;99767;-43
2022/02/07 01:00:11;;;;;;;28.33;21.88;;;;;;;21.84;28.41;94005.06;4898887;28;96849;-40
2022/02/07 01:02:37;;;;;;;25.30;20.63;;;;;;;21.81;28.09;93995.69;4893740;28;97370;-45
2022/02/07 01:05:04;;;;;;;23.83;19.23;;;;;;;21.81;28.09;93981.97;4893951;28;99500;-44
2022/02/07 01:07:30;;;;;;;25.42;21.88;;;;;;;21.86;28.31;93981.47;4895258;28;97711;-41
2022/02/07 01:09:56;;;;;;;28.20;22.30;;;;;;;21.86;28.14;93958.69;4892749;28;96808;-42
2022/02/07 01:12:43;;;;;;;29.75;23.67;;;;;;;21.87;28.08;93963.78;4896909;28;98350;-44
2022/02/07 01:57:55;;;;;;;21.25;15.93;;;;;;;21.66;27.54;93911.97;4889039;28;97910;-47
2022/02/07 02:00:20;;;;;;;26.00;19.17;;;;;;;21.70;27.27;93891.47;4894148;28;99039;-46
2022/02/07 02:02:46;;;;;;;27.08;21.45;;;;;;;21.74;27.42;93889.44;4893781;28;97043;-42
2022/02/07 02:05:12;;;;;;;30.80;23.35;;;;;;;21.77;27.41;93860.31;4889714;28;98148;-45
2022/02/07 02:07:38;;;;;;;26.25;19.75;;;;;;;21.78;27.52;93864.59;4873615;28;99723;-43
2022/02/07 02:10:03;;;;;;;29.58;20.75;;;;;;;21.87;27.63;93867.56;4879698;28;99177;-45
2022/02/07 02:12:33;;;;;;;26.45;20.42;;;;;;;21.88;27.86;93866.34;4894271;28;96762;-43
2022/02/07 02:38:27;;;;;;;21.48;16.25;;;;;;;21.90;27.79;93861.22;4914727;28;97917;-45
2022/02/07 02:46:25;;;;;;;21.10;15.80;;;;;;;21.78;27.77;93883.84;4917341;28;96576;-46
2022/02/07 02:48:51;;;;;;;21.15;15.90;;;;;;;21.78;27.76;93861.84;4917066;28;98047;-44
2022/02/07 02:51:17;;;;;;;20.08;15.82;;;;;;;21.75;28.12;93868.22;4917020;28;99293;-49
2022/02/07 02:53:42;;;;;;;21.42;16.20;;;;;;;21.76;27.84;93856.81;4915569;28;96710;-47
2022/02/07 02:56:07;;;;;;;17.90;14.65;;;;;;;21.75;27.79;93835.22;4917422;28;96881;-47
2022/02/07 02:58:33;;;;;;;20.88;15.73;;;;;;;21.69;27.68;93828.69;4916362;28;99457;-45
2022/02/07 03:00:58;;;;;;;19.92;15.25;;;;;;;21.68;27.59;93810.66;4916600;28;99448;-46
2022/02/07 03:03:24;;;;;;;20.17;14.77;;;;;;;21.65;27.83;93831.53;4916726;28;96928;-46
2022/02/07 03:05:50;;;;;;;20.05;15.18;;;;;;;21.62;27.51;93840.63;4910454;28;97562;-47
2022/02/07 03:08:16;;;;;;;19.60;14.38;;;;;;;21.61;27.69;93828.03;4897419;28;99728;-48
2022/02/07 03:18:29;;;;;;;20.10;14.32;;;;;;;21.60;27.76;93830.00;4914749;28;97228;-48
2022/02/07 03:20:54;;;;;;;19.20;14.35;;;;;;;21.59;27.47;93816.72;4898986;28;99000;-43
2022/02/07 03:23:20;;;;;;;18.45;14.02;;;;;;;21.59;27.59;93820.22;4897256;28;96621;-45
2022/02/07 03:25:45;;;;;;;17.17;13.05;;;;;;;21.60;27.66;93807.25;4897296;28;97562;-44
2022/02/07 03:28:11;;;;;;;18.05;13.35;;;;;;;21.56;27.69;93817.56;4896313;28;99515;-46
2022/02/07 03:30:37;;;;;;;17.08;13.93;;;;;;;21.54;27.75;93826.22;4897117;28;99448;-46
2022/02/07 03:33:03;;;;;;;18.95;13.50;;;;;;;21.51;27.73;93835.28;4897603;28;96669;-43
2022/02/07 03:35:29;;;;;;;20.20;13.98;;;;;;;21.54;27.69;93814.47;4912988;28;96917;-44
2022/02/07 03:37:54;;;;;;;17.10;13.02;;;;;;;21.52;27.73;93825.84;4916069;28;99452;-47
2022/02/07 03:40:20;;;;;;;18.02;12.38;;;;;;;21.52;27.76;93825.84;4916600;28;99581;-46
2022/02/07 03:42:45;;;;;;;15.55;11.75;;;;;;;21.53;27.64;93832.91;4916286;28;97045;-45
2022/02/07 03:45:11;;;;;;;16.27;12.63;;;;;;;21.52;27.70;93836.84;4916460;28;96917;-45
2022/02/07 03:47:36;;;;;;;16.65;12.15;;;;;;;21.50;27.65;93828.25;4912832;28;99414;-45
2022/02/07 03:50:02;;;;;;;16.25;12.60;;;;;;;21.49;27.65;93823.97;4897065;28;96932;-45
2022/02/07 03:52:28;;;;;;;16.83;12.77;;;;;;;21.48;27.59;93825.94;4897108;28;96570;-48
2022/02/07 03:54:53;;;;;;;16.83;12.40;;;;;;;21.53;27.71;93775.19;4915502;28;97056;-46
2022/02/07 03:57:19;;;;;;;16.95;13.02;;;;;;;21.52;27.48;93770.16;4915787;28;99487;-44
2022/02/07 03:59:45;;;;;;;16.50;12.40;;;;;;;21.50;27.55;93789.78;4898479;28;97728;-47
2022/02/07 04:02:10;;;;;;;18.05;12.45;;;;;;;21.44;27.69;93791.53;4896693;28;96855;-43
2022/02/07 04:04:36;;;;;;;18.67;13.25;;;;;;;21.44;27.55;93810.75;4908424;28;97060;-43
2022/02/07 04:07:04;;;;;;;17.35;12.20;;;;;;;21.47;27.63;93801.66;4915811;28;99472;-46
2022/02/07 04:09:35;;;;;;;16.73;12.60;;;;;;;21.45;27.68;93809.56;4915782;28;99257;-46
2022/02/07 04:12:04;;;;;;;19.38;13.13;;;;;;;21.46;27.65;93817.34;4915601;28;96725;-49
2022/02/07 04:14:30;;;;;;;18.23;12.77;;;;;;;21.43;27.60;93800.97;4898925;28;96850;-46
2022/02/07 04:16:55;;;;;;;18.20;13.10;;;;;;;21.47;27.64;93801.66;4896470;28;100083;-45
2022/02/07 04:19:23;;;;;;;20.00;13.90;;;;;;;21.43;27.61;93806.44;4896386;28;99134;-49
2022/02/07 04:21:50;;;;;;;19.13;13.05;;;;;;;21.39;27.64;93809.25;4903778;28;96952;-45
2022/02/07 04:24:17;;;;;;;23.45;13.77;;;;;;;21.44;27.52;93810.75;4901011;28;96981;-46
2022/02/07 04:26:42;;;;;;;21.35;13.73;;;;;;;21.31;27.60;93799.63;4896082;28;99841;-47
2022/02/07 04:29:08;;;;;;;20.05;13.77;;;;;;;21.44;27.60;93802.50;4896856;28;99387;-45
2022/02/07 04:31:34;;;;;;;21.23;14.10;;;;;;;21.28;27.69;93779.28;4896972;28;96653;-43
2022/02/07 04:33:59;;;;;;;19.10;12.85;;;;;;;21.46;27.57;93772.63;4896697;28;96885;-48
2022/02/07 04:36:24;;;;;;;20.40;13.05;;;;;;;21.50;27.69;93784.31;4898967;28;99415;-47
2022/02/07 04:38:50;;;;;;;20.55;13.65;;;;;;;21.50;27.94;93776.06;4896071;28;98746;-45
2022/02/07 04:41:15;;;;;;;20.25;13.23;;;;;;;21.41;27.91;93786.88;4896246;28;96806;-45
2022/02/07 04:43:49;;;;;;;19.38;13.90;;;;;;;21.43;28.19;93774.25;4895677;28;96909;-44
2022/02/07 04:47:35;;;;;;;19.55;13.13;;;;;;;21.40;28.11;93786.09;4893619;28;99399;-46
2022/02/07 04:49:39;;;;;;;18.50;12.43;;;;;;;21.41;28.02;93775.88;4880635;28;97198;-44
2022/02/07 04:55:17;;;;;;;19.63;12.93;;;;;;;21.38;27.92;93763.00;4816924;29;96987;-46
2022/02/07 04:57:49;;;;;;;19.33;13.27;;;;;;;21.34;28.02;93757.56;4868596;28;99444;-46
2022/02/07 05:02:59;;;;;;;18.83;11.88;;;;;;;21.30;27.99;93749.41;4873849;28;97181;-49
2022/02/07 05:16:07;;;;;;;20.92;12.15;;;;;;;21.29;27.89;93731.41;4892918;28;97087;-51
2022/02/07 05:18:32;;;;;;;20.70;12.90;;;;;;;21.31;27.66;93739.97;4895663;28;97919;-46
2022/02/07 05:20:58;;;;;;;18.00;11.95;;;;;;;21.30;27.81;93748.63;4895753;28;99626;-43
2022/02/07 05:23:23;;;;;;;20.88;13.68;;;;;;;21.30;27.87;93726.66;4895663;28;96745;-49
2022/02/07 05:25:49;;;;;;;20.65;12.82;;;;;;;21.26;27.82;93736.94;4895918;28;96905;-43
2022/02/07 05:28:14;;;;;;;19.20;12.73;;;;;;;21.18;28.01;93742.63;4895039;28;99555;-44
2022/02/07 05:30:40;;;;;;;20.27;12.30;;;;;;;21.20;28.07;93724.94;4895305;28;99094;-49
2022/02/07 05:33:05;;;;;;;20.52;12.52;;;;;;;21.37;28.13;93736.75;4894524;28;96915;-43
2022/02/07 05:35:30;;;;;;;19.75;12.38;;;;;;;21.36;28.29;93724.97;4895590;28;96823;-44
2022/02/07 05:37:56;;;;;;;20.33;12.98;;;;;;;21.09;28.16;93728.69;4895004;28;99470;-43
2022/02/07 05:42:56;;;;;;;20.58;13.07;;;;;;;21.39;28.24;93709.63;4894066;28;96812;-47
2022/02/07 05:45:22;;;;;;;17.30;11.85;;;;;;;21.44;28.54;93740.09;4895925;28;96998;-43
2022/02/07 05:47:47;;;;;;;19.08;11.98;;;;;;;21.41;28.51;93760.16;4894974;28;99877;-49
2022/02/07 05:50:13;;;;;;;19.23;13.02;;;;;;;21.23;28.39;93757.81;4894354;28;99861;-46
2022/02/07 05:52:38;;;;;;;16.45;11.93;;;;;;;21.28;28.37;93765.56;4894804;28;96856;-48
2022/02/07 05:55:04;;;;;;;28.33;20.42;;;;;;;21.38;28.39;93763.00;4895223;28;96955;-46
2022/02/07 05:57:29;;;;;;;61.03;49.35;;;;;;;21.40;28.41;93780.59;4894631;28;99884;-46
2022/02/07 05:59:55;;;;;;;54.03;44.85;;;;;;;21.41;28.54;93781.38;4894928;28;99404;-45
2022/02/07 06:02:20;;;;;;;52.38;42.35;;;;;;;21.38;28.48;93760.25;4894698;28;97615;-44
2022/02/07 06:04:45;;;;;;;45.00;36.60;;;;;;;21.41;28.46;93786.88;4895213;28;96774;-52
2022/02/07 06:07:11;;;;;;;43.83;33.95;;;;;;;21.37;28.38;93758.72;4894540;28;99402;-46
2022/02/07 06:09:36;;;;;;;40.42;32.58;;;;;;;21.37;28.34;93775.19;4895163;28;99259;-43
2022/02/07 06:12:02;;;;;;;40.65;31.83;;;;;;;21.33;28.40;93756.81;4895010;28;96849;-44
2022/02/07 06:14:27;;;;;;;35.25;29.13;;;;;;;21.32;28.35;93752.53;4895094;28;96912;-48
2022/02/07 06:16:53;;;;;;;35.60;28.25;;;;;;;21.34;28.27;93749.34;4894137;28;98965;-47
2022/02/07 06:19:18;;;;;;;35.65;27.13;;;;;;;21.37;28.20;93766.94;4894592;28;99243;-45
2022/02/07 06:21:44;;;;;;;32.05;26.35;;;;;;;21.32;28.26;93736.03;4894797;28;96740;-44
2022/02/07 06:24:09;;;;;;;33.25;25.73;;;;;;;21.32;28.20;93744.28;4894976;28;96913;-45
2022/02/07 06:26:35;;;;;;;31.27;25.42;;;;;;;21.28;28.30;93746.31;4894586;28;99255;-46
2022/02/07 06:29:00;;;;;;;32.50;24.88;;;;;;;21.29;28.15;93750.63;4894783;28;97937;-46
2022/02/07 06:31:26;;;;;;;34.88;25.20;;;;;;;21.35;28.21;93752.88;4894739;28;96647;-46
2022/02/07 06:33:51;;;;;;;32.33;23.70;;;;;;;21.32;28.15;93744.28;4895281;28;96852;-46
2022/02/07 06:36:17;;;;;;;28.52;21.55;;;;;;;21.32;28.09;93738.78;4894419;28;99260;-48
2022/02/07 06:38:43;;;;;;;29.52;22.90;;;;;;;21.31;28.05;93729.00;4894545;28;99353;-47
2022/02/07 06:41:08;;;;;;;28.92;22.42;;;;;;;21.31;28.10;93739.97;4894354;28;96876;-47
2022/02/07 06:43:33;;;;;;;29.17;21.83;;;;;;;21.31;28.08;93739.97;4894789;28;96773;-44
2022/02/07 06:45:59;;;;;;;28.23;21.20;;;;;;;21.30;28.17;93749.41;4894415;28;100072;-45
2022/02/07 06:48:25;;;;;;;26.08;20.15;;;;;;;21.28;28.20;93768.28;4894355;28;99227;-49
2022/02/07 06:50:51;;;;;;;27.10;18.92;;;;;;;21.27;28.07;93777.75;4894425;28;96697;-45
2022/02/07 06:53:16;;;;;;;26.15;19.40;;;;;;;21.32;28.09;93774.50;4894636;28;96942;-44
2022/02/07 06:55:42;;;;;;;21.55;17.20;;;;;;;21.26;28.02;93745.97;4894290;28;99913;-46
2022/02/07 06:58:07;;;;;;;25.55;19.00;;;;;;;21.33;28.10;93742.28;4894215;28;98839;-47
2022/02/07 07:00:33;;;;;;;23.83;17.80;;;;;;;21.28;27.92;93740.84;4894947;28;97238;-44
2022/02/07 07:02:59;;;;;;;24.15;17.98;;;;;;;21.31;27.94;93706.25;4897422;28;97503;-48
2022/02/07 07:05:24;;;;;;;24.00;17.65;;;;;;;21.28;27.96;93729.84;4896930;28;97896;-47
2022/02/07 07:07:50;;;;;;;23.48;16.83;;;;;;;21.28;27.96;93724.34;4897012;28;99062;-47
2022/02/07 07:10:17;;;;;;;23.25;17.05;;;;;;;21.26;27.96;93721.25;4897911;28;96624;-43
2022/02/07 07:12:45;;;;;;;23.00;17.02;;;;;;;21.25;27.87;93740.91;4897514;28;96985;-45
2022/02/07 07:15:15;;;;;;;22.33;16.05;;;;;;;21.29;27.80;93736.88;4897250;28;99964;-44
2022/02/07 07:17:40;;;;;;;21.85;16.08;;;;;;;21.26;27.79;93710.28;4897112;28;99260;-45
2022/02/07 07:20:07;;;;;;;22.33;15.90;;;;;;;21.22;27.99;93731.56;4897716;28;96750;-44
2022/02/07 07:22:33;;;;;;;21.88;15.73;;;;;;;21.23;27.92;93693.88;4897725;28;96878;-49
2022/02/07 07:24:59;;;;;;;21.05;15.02;;;;;;;21.29;27.58;93703.94;4897204;28;99300;-45
2022/02/07 07:27:27;;;;;;;19.48;14.93;;;;;;;21.33;27.85;93714.81;4896942;28;99277;-45
2022/02/07 07:29:53;;;;;;;20.27;14.95;;;;;;;21.28;27.90;93707.88;4897116;28;96858;-47
2022/02/07 07:32:24;;;;;;;20.90;14.88;;;;;;;21.24;27.79;93712.66;4897444;28;96874;-45
2022/02/07 07:34:50;;;;;;;21.20;14.00;;;;;;;21.28;27.72;93718.06;4897194;28;99402;-46
2022/02/07 07:37:15;;;;;;;21.27;14.95;;;;;;;21.23;27.73;93699.34;4896815;28;99356;-46
2022/02/07 07:39:42;;;;;;;19.42;13.73;;;;;;;21.30;27.73;93705.47;4897009;28;96828;-44
2022/02/07 07:42:08;;;;;;;19.67;13.98;;;;;;;21.31;27.72;93696.03;4897121;28;97033;-45
2022/02/07 07:44:36;;;;;;;19.20;13.57;;;;;;;21.27;27.68;93673.38;4896940;28;99514;-47
2022/02/07 07:47:24;;;;;;;20.42;14.93;;;;;;;21.26;27.78;93663.59;4897152;28;99369;-48
2022/02/07 07:50:04;;;;;;;19.25;12.95;;;;;;;21.26;27.79;93663.59;4897167;28;96841;-46
2022/02/07 07:52:45;;;;;;;17.98;12.68;;;;;;;21.26;27.81;93665.56;4897082;28;96748;-45
2022/02/07 08:03:04;;;;;;;17.42;12.52;;;;;;;21.30;27.77;93707.44;4896130;28;96883;-47
2022/02/07 08:05:49;;;;;;;18.10;12.95;;;;;;;21.29;27.71;93670.19;4896649;28;99507;-43
2022/02/07 08:08:35;;;;;;;15.90;12.15;;;;;;;21.29;27.80;93660.00;4896547;28;98779;-45
2022/02/07 08:11:04;;;;;;;15.85;11.48;;;;;;;21.28;27.72;93650.19;4896997;28;96810;-45
2022/02/07 08:13:32;;;;;;;15.68;11.65;;;;;;;21.27;27.50;93651.41;4896621;28;96870;-46
2022/02/07 08:15:57;;;;;;;18.95;12.60;;;;;;;21.30;27.78;93639.56;4896452;28;99299;-48
2022/02/07 08:18:23;;;;;;;17.55;11.90;;;;;;;21.28;27.78;93636.47;4896510;28;99199;-46
2022/02/07 08:20:48;;;;;;;15.07;11.23;;;;;;;21.31;27.69;93627.38;4896203;28;96625;-49
2022/02/07 08:23:14;;;;;;;15.88;11.23;;;;;;;21.37;27.71;93599.41;4896842;28;98012;-46
2022/02/07 08:25:39;;;;;;;14.80;10.73;;;;;;;21.29;27.61;93580.34;4896216;28;99599;-44
2022/02/07 08:28:05;;;;;;;15.25;11.13;;;;;;;21.37;27.65;93593.91;4896776;28;97972;-47
2022/02/07 08:30:31;;;;;;;15.88;11.55;;;;;;;21.33;27.57;93600.25;4896592;28;96743;-47
2022/02/07 08:32:58;;;;;;;14.43;10.63;;;;;;;21.33;27.70;93583.00;4896654;28;96945;-47
2022/02/07 08:35:24;;;;;;;14.50;10.73;;;;;;;21.33;27.63;93572.78;4896219;28;99658;-46
2022/02/07 08:37:49;;;;;;;14.93;10.43;;;;;;;21.37;27.53;93591.16;4896454;28;98438;-45
2022/02/07 08:40:15;;;;;;;15.85;10.68;;;;;;;21.33;27.54;93605.75;4896536;28;96682;-47
2022/02/07 08:42:41;;;;;;;14.50;10.63;;;;;;;21.36;27.61;93609.59;4896527;28;96935;-45
2022/02/07 08:45:07;;;;;;;15.25;10.43;;;;;;;21.28;27.67;93586.25;4895725;28;99416;-44
2022/02/07 08:47:32;;;;;;;15.77;10.77;;;;;;;21.32;27.72;93598.72;4896190;28;99607;-44
2022/02/07 08:49:59;;;;;;;13.88;10.38;;;;;;;21.33;27.50;93592.03;4896651;28;96711;-45
2022/02/07 08:52:24;;;;;;;13.52;10.18;;;;;;;21.31;27.56;93574.41;4896109;28;97033;-43
2022/02/07 08:54:51;;;;;;;12.38;10.15;;;;;;;21.30;27.56;93572.88;4895965;28;99952;-44
2022/02/07 08:59:57;;;;;;;13.07;10.27;;;;;;;21.35;27.52;93513.91;4896286;28;96811;-43
2022/02/07 09:02:53;;;;;;;14.35;9.38;;;;;;;21.36;27.56;93504.47;4896065;28;96733;-49
2022/02/07 09:08:09;;;;;;;15.23;10.23;;;;;;;21.33;27.54;93578.28;4894221;28;97763;-45
2022/02/07 09:10:34;;;;;;;14.20;9.27;;;;;;;21.29;27.56;93565.81;4895699;28;96818;-43
2022/02/07 09:13:00;;;;;;;13.90;9.60;;;;;;;21.32;27.53;93563.00;4896145;28;96981;-43
2022/02/07 09:17:54;;;;;;;13.20;8.93;;;;;;;21.32;27.79;93564.97;4895705;28;97799;-43
2022/02/07 09:20:19;;;;;;;12.88;9.50;;;;;;;21.36;27.57;93575.88;4895744;28;96694;-47
2022/02/07 09:22:47;;;;;;;12.18;9.05;;;;;;;21.35;27.49;93558.63;4896106;28;96954;-46
2022/02/07 09:25:12;;;;;;;12.88;9.00;;;;;;;21.31;27.65;93577.94;4895569;28;99555;-45
2022/02/07 09:27:38;;;;;;;13.23;8.85;;;;;;;21.33;27.51;93572.78;4895587;28;99824;-45
2022/02/07 09:30:06;;;;;;;12.90;9.57;;;;;;;21.37;27.41;93577.44;4895911;28;97666;-45
2022/02/07 09:32:32;;;;;;;10.57;8.50;;;;;;;21.33;27.62;93575.53;4895695;28;97072;-46
2022/02/07 09:34:58;;;;;;;13.30;9.27;;;;;;;21.32;27.58;93563.00;4894873;28;100037;-45
2022/02/07 09:37:23;;;;;;;12.88;8.90;;;;;;;21.34;27.48;93570.81;4895316;28;99447;-46
2022/02/07 09:39:49;;;;;;;13.20;8.65;;;;;;;21.36;27.58;93570.38;4895849;28;97442;-48
2022/02/07 09:42:16;;;;;;;13.95;8.68;;;;;;;21.35;27.54;93558.63;4895462;28;96945;-49
2022/02/07 09:44:45;;;;;;;13.13;8.68;;;;;;;21.36;27.42;93553.91;4895208;28;99340;-46
2022/02/07 09:47:11;;;;;;;10.27;8.00;;;;;;;21.37;27.47;93522.50;4895127;28;99414;-44
2022/02/07 09:49:36;;;;;;;13.52;8.95;;;;;;;21.40;27.49;93510.66;4895549;28;96642;-47
2022/02/07 09:52:04;;;;;;;11.88;8.85;;;;;;;21.33;27.43;93506.88;4878653;28;96907;-45
2022/02/07 09:54:29;;;;;;;13.20;9.13;;;;;;;21.41;27.47;93495.72;4895257;28;99496;-46
2022/02/07 09:56:55;;;;;;;15.07;9.45;;;;;;;21.30;27.44;93480.28;4895722;28;99036;-46
2022/02/07 09:59:27;;;;;;;11.95;8.90;;;;;;;21.40;27.62;93494.16;4894747;28;96838;-49
2022/02/07 10:01:55;;;;;;;;;;;;;;;21.41;27.59;93490.22;4895478;28;96965;-45
2022/02/07 10:04:30;;;;;;;12.02;8.50;;;;;;;21.41;27.59;93490.22;4894954;28;99423;-44
2022/02/07 10:44:38;;;;;;;11.65;7.32;;;;;;;21.58;27.32;93370.06;4897289;28;96787;-46
2022/02/07 10:47:10;;;;;;;12.52;7.82;;;;;;;21.56;27.35;93377.97;4898029;28;99461;-50
2022/02/07 10:49:36;;;;;;;11.23;8.13;;;;;;;21.58;27.34;93351.59;4898161;28;99785;-49
2022/02/07 10:52:02;;;;;;;11.85;7.68;;;;;;;21.57;27.41;93371.25;4897658;28;96760;-46
2022/02/07 10:54:28;;;;;;;11.65;7.60;;;;;;;21.46;27.58;93327.63;4898245;28;96840;-47
2022/02/07 10:56:54;;;;;;;10.98;7.55;;;;;;;21.53;27.48;93357.63;4897670;28;99476;-53
2022/02/07 10:59:21;;;;;;;10.82;7.40;;;;;;;21.55;27.51;93346.97;4897804;28;99245;-45
2022/02/07 11:04:28;;;;;;;9.90;7.20;;;;;;;21.51;27.56;93340.78;4898354;28;97658;-46
2022/02/07 11:06:58;;;;;;;10.68;7.68;;;;;;;21.48;27.39;93328.72;4897512;28;99786;-43
2022/02/07 11:09:35;;;;;;;12.50;7.25;;;;;;;21.43;27.39;93339.50;4898138;28;96876;-44
2022/02/07 11:12:17;;;;;;;10.73;7.47;;;;;;;21.42;27.23;93332.44;4897911;28;97035;-43
2022/02/07 11:20:46;;;;;;;11.32;7.60;;;;;;;21.43;27.58;93323.00;4896676;28;97743;-48
2022/02/07 11:26:36;;;;;;;11.43;7.57;;;;;;;21.41;27.66;93328.91;4884421;28;96819;-43
2022/02/07 11:29:01;;;;;;;10.77;7.55;;;;;;;21.37;27.61;93294.53;4897537;28;100001;-46
2022/02/07 11:31:32;;;;;;;12.18;7.55;;;;;;;21.40;27.58;93296.41;4897280;28;99326;-46
2022/02/07 11:34:09;;;;;;;10.98;6.45;;;;;;;21.38;27.47;93290.59;4897526;28;96638;-45
2022/02/07 11:36:36;;;;;;;10.57;6.90;;;;;;;21.42;27.45;93285.75;4897951;28;96942;-43
2022/02/07 11:39:10;;;;;;;8.40;6.40;;;;;;;21.40;27.31;93258.72;4897141;28;99775;-48
2022/02/07 11:42:00;;;;;;;8.52;6.65;;;;;;;21.41;27.26;93241.03;4896968;28;99311;-46
2022/02/07 11:44:38;;;;;;;8.63;6.07;;;;;;;21.39;27.31;93228.97;4896805;28;97679;-46
2022/02/07 11:47:26;;;;;;;11.27;6.45;;;;;;;21.32;27.43;93208.75;4896734;28;96929;-44
2022/02/07 11:50:03;;;;;;;9.60;6.63;;;;;;;21.32;27.13;93208.75;4896962;28;99441;-43
2022/02/07 11:52:29;;;;;;;8.43;6.22;;;;;;;21.27;27.53;93173.59;4879877;28;99498;-45
2022/02/07 11:55:02;;;;;;;9.10;6.20;;;;;;;21.31;27.58;93174.25;4897301;28;96635;-47
2022/02/07 11:57:35;;;;;;;9.45;5.82;;;;;;;21.31;27.39;93166.00;4897321;28;96946;-43
2022/02/07 12:00:00;;;;;;;9.45;6.25;;;;;;;21.32;27.46;93148.31;4896879;28;98645;-49
2022/02/07 12:02:36;;;;;;;7.85;5.78;;;;;;;21.28;27.50;93152.38;4863559;28;99330;-46
2022/02/07 12:05:02;;;;;;;8.27;5.97;;;;;;;21.26;27.34;93141.84;4897178;28;96623;-44
2022/02/07 12:07:35;;;;;;;5.90;5.18;;;;;;;21.29;27.54;93127.22;4897306;28;96867;-48
2022/02/07 12:10:13;;;;;;;8.65;5.38;;;;;;;21.27;27.44;93118.66;4896300;28;99576;-45
2022/02/07 12:12:43;;;;;;;9.52;7.32;;;;;;;21.26;27.46;93128.09;4896772;28;99162;-43
2022/02/07 12:15:12;;;;;;;6.35;5.38;;;;;;;21.22;27.61;93160.41;4897139;28;97216;-44
2022/02/07 12:17:50;;;;;;;7.38;5.50;;;;;;;21.27;27.75;93173.59;4896869;28;96867;-45
2022/02/07 12:20:18;;;;;;;10.00;5.28;;;;;;;21.31;27.62;93207.19;4896454;28;99585;-45
2022/02/07 12:22:55;;;;;;;6.10;5.28;;;;;;;21.24;27.60;93185.44;4896393;28;98700;-44
2022/02/07 12:25:46;;;;;;;8.48;5.53;;;;;;;21.31;27.65;93203.66;4896969;28;96703;-44
2022/02/07 12:31:11;;;;;;;10.07;5.18;;;;;;;21.35;27.72;93207.06;4895560;28;98032;-47
2022/02/07 12:33:37;;;;;;;7.30;5.18;;;;;;;21.29;27.66;93193.13;4896499;28;99334;-46
2022/02/07 12:36:03;;;;;;;6.20;5.07;;;;;;;21.30;27.60;93193.88;4895971;28;96724;-48
2022/02/07 12:38:33;;;;;;;9.65;5.45;;;;;;;21.29;27.96;93215.09;4896365;28;96945;-45
2022/02/07 12:40:59;;;;;;;9.20;5.22;;;;;;;21.28;27.90;93205.31;4896210;28;98254;-47
2022/02/07 12:43:25;;;;;;;7.50;5.28;;;;;;;21.25;27.75;93192.47;4896303;28;97658;-45
2022/02/07 12:45:50;;;;;;;6.75;5.13;;;;;;;21.27;27.78;93192.81;4896381;28;96854;-46
2022/02/07 12:48:21;;;;;;;6.68;5.43;;;;;;;21.24;27.65;93185.44;4896426;28;96908;-50
2022/02/07 12:50:51;;;;;;;7.05;5.18;;;;;;;21.24;27.65;93201.91;4895971;28;99686;-47
2022/02/07 12:53:17;;;;;;;7.65;5.32;;;;;;;21.26;27.77;93198.72;4896339;28;99292;-44
2022/02/07 12:55:47;;;;;;;10.10;5.50;;;;;;;21.22;27.66;93165.88;4896188;28;96727;-48
2022/02/07 12:58:13;;;;;;;7.25;5.35;;;;;;;21.29;27.67;93168.41;4896008;28;96889;-46
2022/02/07 13:00:38;;;;;;;6.35;5.22;;;;;;;21.28;27.78;93147.66;4895373;28;99515;-44
2022/02/07 13:03:04;;;;;;;7.28;5.30;;;;;;;21.31;27.63;93163.25;4895128;28;99367;-46
2022/02/07 13:05:29;;;;;;;7.07;5.13;;;;;;;21.29;27.68;93153.91;4896145;28;96792;-46
2022/02/07 13:07:57;;;;;;;7.63;5.07;;;;;;;21.30;27.79;93169.97;4896178;28;96952;-46
2022/02/07 13:10:23;;;;;;;9.88;5.20;;;;;;;21.30;27.74;93163.69;4879000;28;99601;-49
2022/02/07 13:15:32;;;;;;;7.15;5.25;;;;;;;21.30;27.89;93171.94;4895537;28;97698;-46
2022/02/07 13:18:04;;;;;;;7.88;4.97;;;;;;;21.30;27.68;93166.44;4896593;28;97718;-44
2022/02/07 13:20:29;;;;;;;;;;;;;;;21.31;27.65;93192.69;4896422;28;97866;-47
2022/02/07 13:23:10;;;;;;;7.13;5.03;;;;;;;21.27;27.95;93195.56;4895588;28;99399;-46
2022/02/07 13:25:48;;;;;;;8.35;5.30;;;;;;;21.24;27.96;93196.44;4895486;28;96704;-49
2022/02/07 13:28:27;;;;;;;5.32;4.82;;;;;;;21.22;27.91;93165.88;4895491;28;96910;-45
2022/02/07 13:30:57;;;;;;;7.05;5.13;;;;;;;21.22;27.63;93171.38;4895502;28;99412;-43
2022/02/07 13:33:23;;;;;;;7.28;4.90;;;;;;;21.23;27.67;93159.19;4895593;28;99668;-45
2022/02/07 13:35:51;;;;;;;5.50;4.70;;;;;;;21.17;27.77;93141.72;4878673;28;96719;-43
2022/02/07 13:38:18;;;;;;;7.50;5.00;;;;;;;21.18;27.84;93144.03;4895660;28;96901;-47
2022/02/07 13:40:54;;;;;;;6.95;5.47;;;;;;;21.26;27.72;93154.78;4895127;28;99602;-46
2022/02/07 13:43:24;;;;;;;6.60;5.07;;;;;;;21.20;27.68;93140.09;4878709;28;99568;-49
2022/02/07 13:45:57;;;;;;;8.13;5.15;;;;;;;21.26;27.58;93147.34;4895577;28;96846;-47
2022/02/07 13:48:24;;;;;;;5.63;4.80;;;;;;;21.26;27.67;93149.28;4895606;28;96937;-44
2022/02/07 13:50:53;;;;;;;7.53;4.82;;;;;;;21.18;27.71;93135.03;4894998;28;99603;-45
2022/02/07 13:53:18;;;;;;;7.40;4.72;;;;;;;21.25;27.69;93145.78;4894923;28;99446;-45
2022/02/07 13:55:53;;;;;;;6.65;5.07;;;;;;;21.21;27.82;93139.63;4895004;28;97032;-43
2022/02/07 13:58:34;;;;;;;6.50;5.10;;;;;;;21.13;27.80;93133.63;4895295;28;96711;-49
2022/02/07 14:01:10;;;;;;;5.95;4.72;;;;;;;21.22;27.87;93141.19;4893837;28;99329;-43
2022/02/07 14:03:49;;;;;;;7.03;4.97;;;;;;;21.22;27.85;93138.44;4894675;28;99416;-45
2022/02/07 14:06:16;;;;;;;5.80;4.68;;;;;;;21.24;27.66;93141.50;4895190;28;96774;-48
2022/02/07 14:08:53;;;;;;;6.03;4.82;;;;;;;21.24;27.83;93105.81;4895925;28;96963;-43
2022/02/07 14:11:25;;;;;;;6.28;4.93;;;;;;;21.25;27.73;93104.59;4894312;28;99593;-46
2022/02/07 14:13:52;;;;;;;5.85;4.80;;;;;;;21.25;27.69;93104.59;4894833;28;99210;-46
2022/02/07 14:16:23;;;;;;;6.95;4.97;;;;;;;21.25;27.73;93099.13;4894437;28;96690;-46
2022/02/07 14:18:49;;;;;;;6.93;4.97;;;;;;;21.21;28.05;93119.63;4895154;28;96810;-45
2022/02/07 14:21:17;;;;;;;5.60;4.82;;;;;;;21.23;28.02;93134.47;4894850;28;99685;-45
2022/02/07 14:23:45;;;;;;;5.13;4.63;;;;;;;21.22;27.82;93138.44;4894908;28;99219;-43